createdAt,value
2023-01-29T00:01:45.554Z,22.00
2023-01-29T00:04:50.297Z,22.60
2023-01-29T00:07:56.488Z,22.60
2023-01-29T00:11:03.347Z,21.92
2023-01-29T00:14:08.388Z,23.60
2023-01-29T00:17:12.856Z,23.80
2023-01-29T00:20:27.962Z,22.98
2023-01-29T00:23:43.492Z,22.95
2023-01-29T00:26:51.227Z,23.33
2023-01-29T00:30:12.784Z,23.85
2023-01-29T00:33:16.861Z,23.15
2023-01-29T00:36:22.378Z,24.00
2023-01-29T00:39:47.551Z,25.20
2023-01-29T00:43:11.700Z,22.98
2023-01-29T00:46:16.177Z,24.77
2023-01-29T00:49:20.969Z,24.60
2023-01-29T00:52:26.059Z,24.38
2023-01-29T00:55:30.575Z,25.20
2023-01-29T00:58:35.167Z,24.98
2023-01-29T01:01:57.824Z,24.60
2023-01-29T01:05:06.219Z,23.67
2023-01-29T01:08:29.775Z,24.80
2023-01-29T01:11:34.286Z,24.60
2023-01-29T01:14:38.371Z,25.58
2023-01-29T01:17:42.604Z,23.02
2023-01-29T01:20:51.525Z,18.40
2023-01-29T01:23:56.047Z,20.45
2023-01-29T01:27:01.042Z,22.35
2023-01-29T01:30:06.217Z,23.42
2023-01-29T01:33:10.627Z,22.67
2023-01-29T01:36:15.831Z,23.85
2023-01-29T01:39:20.077Z,24.83
2023-01-29T01:42:33.373Z,25.00
2023-01-29T01:45:37.772Z,24.83
2023-01-29T01:48:43.615Z,24.33
2023-01-29T01:51:52.093Z,23.73
2023-01-29T01:54:58.018Z,26.13
2023-01-29T01:58:12.472Z,29.48
2023-01-29T02:01:17.884Z,26.90
2023-01-29T02:04:43.641Z,21.30
2023-01-29T02:08:08.884Z,21.65
2023-01-29T02:11:13.667Z,21.40
2023-01-29T02:14:18.060Z,21.10
2023-01-29T02:17:22.301Z,22.77
2023-01-29T02:20:34.820Z,22.70
2023-01-29T02:24:18.809Z,23.33
2023-01-29T02:27:57.245Z,24.38
2023-01-29T02:31:41.503Z,23.83
2023-01-29T02:35:15.537Z,25.52
2023-01-29T02:38:50.711Z,25.67
2023-01-29T02:42:07.320Z,23.95
2023-01-29T02:45:19.183Z,23.00
2023-01-29T02:48:25.415Z,23.08
2023-01-29T02:51:45.198Z,23.30
2023-01-29T02:55:08.757Z,21.65
2023-01-29T02:58:50.809Z,14.37
2023-01-29T03:02:26.492Z,19.55
2023-01-29T03:05:55.970Z,18.25
2023-01-29T03:09:09.572Z,19.05
2023-01-29T03:12:33.979Z,18.85
2023-01-29T03:15:48.399Z,22.48
2023-01-29T03:19:10.886Z,20.23
2023-01-29T03:22:17.351Z,21.33
2023-01-29T03:25:44.666Z,20.23
2023-01-29T03:29:07.930Z,20.20
2023-01-29T03:32:14.640Z,15.53
2023-01-29T03:35:33.458Z,19.92
2023-01-29T03:38:37.691Z,20.60
2023-01-29T03:42:17.678Z,21.10
2023-01-29T03:45:43.168Z,19.38
2023-01-29T03:48:53.909Z,19.33
2023-01-29T03:52:08.618Z,19.25
2023-01-29T03:55:29.177Z,19.08
2023-01-29T03:58:55.934Z,20.15
2023-01-29T04:02:06.086Z,21.15
2023-01-29T04:05:18.765Z,19.75
2023-01-29T04:08:31.123Z,18.98
2023-01-29T04:11:42.814Z,19.75
2023-01-29T04:14:50.298Z,18.10
2023-01-29T04:17:57.112Z,17.90
2023-01-29T04:21:02.501Z,16.85
2023-01-29T04:24:07.927Z,18.63
2023-01-29T04:27:12.225Z,18.50
2023-01-29T04:30:28.102Z,20.05
2023-01-29T04:34:00.872Z,20.55
2023-01-29T04:37:19.562Z,20.75
2023-01-29T04:40:56.602Z,22.42
2023-01-29T04:44:22.948Z,24.10
2023-01-29T04:48:05.568Z,23.83
2023-01-29T04:51:21.096Z,22.63
2023-01-29T04:54:34.357Z,22.73
2023-01-29T04:58:12.785Z,20.88
2023-01-29T05:01:19.005Z,19.42
2023-01-29T05:04:24.534Z,20.80
2023-01-29T05:07:31.165Z,19.83
2023-01-29T05:10:35.714Z,20.88
2023-01-29T05:13:43.098Z,20.52
2023-01-29T05:16:53.353Z,18.65
2023-01-29T05:19:58.303Z,19.75
2023-01-29T05:23:02.482Z,18.83
2023-01-29T05:26:06.787Z,18.70
2023-01-29T05:29:12.253Z,18.75
2023-01-29T05:32:17.093Z,19.42
2023-01-29T05:35:21.520Z,18.48
2023-01-29T05:38:26.241Z,16.27
2023-01-29T05:41:30.621Z,17.33
2023-01-29T05:44:34.928Z,18.00
2023-01-29T05:47:39.332Z,16.80
2023-01-29T05:50:43.570Z,17.58
2023-01-29T05:56:51.885Z,16.80
2023-01-29T05:59:56.162Z,17.20
2023-01-29T06:03:00.968Z,17.10
2023-01-29T06:06:06.062Z,16.63
2023-01-29T06:09:11.913Z,16.27
2023-01-29T06:12:15.754Z,15.88
2023-01-29T06:15:20.392Z,16.00
2023-01-29T06:18:24.782Z,16.75
2023-01-29T06:21:29.070Z,17.15
2023-01-29T06:24:33.393Z,16.58
2023-01-29T06:27:37.839Z,16.23
2023-01-29T06:30:42.048Z,17.10
2023-01-29T06:33:46.957Z,15.80
2023-01-29T06:36:51.524Z,15.95
2023-01-29T06:39:55.605Z,16.70
2023-01-29T06:43:03.145Z,16.85
2023-01-29T06:46:08.836Z,16.10
2023-01-29T06:49:13.189Z,16.25
2023-01-29T06:52:17.485Z,18.85
2023-01-29T06:55:21.944Z,15.95
2023-01-29T06:58:26.323Z,15.77
2023-01-29T07:01:36.240Z,15.65
2023-01-29T07:04:42.712Z,14.65
2023-01-29T07:07:46.720Z,15.77
2023-01-29T07:10:51.021Z,15.77
2023-01-29T07:13:55.206Z,16.00
2023-01-29T07:16:59.627Z,16.23
2023-01-29T07:20:04.221Z,17.60
2023-01-29T07:23:13.935Z,17.10
2023-01-29T07:26:18.330Z,17.23
2023-01-29T07:29:22.867Z,16.60
2023-01-29T07:32:29.105Z,17.75
2023-01-29T07:35:42.011Z,18.70
2023-01-29T07:38:51.103Z,18.10
2023-01-29T07:41:55.485Z,17.98
2023-01-29T07:44:59.706Z,19.15
2023-01-29T07:48:05.965Z,20.48
2023-01-29T07:51:10.440Z,20.50
2023-01-29T07:54:14.729Z,20.63
2023-01-29T07:57:18.983Z,23.75
2023-01-29T08:00:23.706Z,22.80
2023-01-29T08:03:28.230Z,25.10
2023-01-29T08:06:32.575Z,25.80
2023-01-29T08:09:37.315Z,25.63
2023-01-29T08:12:41.570Z,27.23
2023-01-29T08:15:46.153Z,27.65
2023-01-29T08:18:50.452Z,25.77
2023-01-29T08:21:54.625Z,28.42
2023-01-29T08:25:06.156Z,27.75
2023-01-29T08:28:12.463Z,30.40
2023-01-29T08:31:18.146Z,30.52
2023-01-29T08:34:22.703Z,32.97
2023-01-29T08:37:27.168Z,31.10
2023-01-29T08:40:34.740Z,33.15
2023-01-29T08:43:40.528Z,33.15
2023-01-29T08:46:44.858Z,34.70
2023-01-29T08:49:49.039Z,33.03
2023-01-29T08:53:44.464Z,35.20
2023-01-29T08:56:55.131Z,35.30
2023-01-29T08:59:59.217Z,33.58
2023-01-29T09:03:04.634Z,34.45
2023-01-29T09:06:12.114Z,33.95
2023-01-29T09:09:16.678Z,33.03
2023-01-29T09:12:20.932Z,34.70
2023-01-29T09:15:25.511Z,41.88
2023-01-29T09:18:31.095Z,37.28
2023-01-29T09:21:35.175Z,51.63
2023-01-29T09:24:39.401Z,31.63
2023-01-29T09:27:43.811Z,31.67
2023-01-29T09:30:48.156Z,32.97
2023-01-29T09:33:52.672Z,32.97
2023-01-29T09:36:56.890Z,31.42
2023-01-29T09:40:04.064Z,31.40
2023-01-29T09:43:19.157Z,31.75
2023-01-29T09:46:31.827Z,29.90
2023-01-29T09:49:42.503Z,29.23
2023-01-29T09:52:52.026Z,31.10
2023-01-29T09:56:19.991Z,29.15
2023-01-29T09:59:29.901Z,29.15
2023-01-29T10:03:08.426Z,28.05
2023-01-29T10:06:53.732Z,27.77
2023-01-29T10:10:30.183Z,28.17
2023-01-29T10:14:21.413Z,29.77
2023-01-29T10:17:43.744Z,27.55
2023-01-29T10:21:17.310Z,28.13
2023-01-29T10:25:00.110Z,26.40
2023-01-29T10:28:20.863Z,26.98
2023-01-29T10:31:32.719Z,26.45
2023-01-29T10:34:46.479Z,28.25
2023-01-29T10:37:54.307Z,26.73
2023-01-29T10:41:14.121Z,25.88
2023-01-29T10:44:31.263Z,28.52
2023-01-29T10:48:33.886Z,30.20
2023-01-29T10:52:14.729Z,38.00
2023-01-29T10:55:40.360Z,32.25
2023-01-29T10:58:57.392Z,33.10
2023-01-29T11:02:05.023Z,34.92
2023-01-29T11:05:25.851Z,34.72
2023-01-29T11:09:05.147Z,35.85
2023-01-29T11:12:22.788Z,37.80
2023-01-29T11:15:34.954Z,36.80
2023-01-29T11:18:50.689Z,39.67
2023-01-29T11:22:02.929Z,41.47
2023-01-29T11:25:21.450Z,42.35
2023-01-29T11:28:46.805Z,41.58
2023-01-29T11:31:51.034Z,40.30
2023-01-29T11:35:13.972Z,42.08
2023-01-29T11:38:29.657Z,44.70
2023-01-29T11:41:52.854Z,43.47
2023-01-29T11:44:57.306Z,43.53
2023-01-29T11:48:01.769Z,45.00
2023-01-29T11:51:06.606Z,42.58
2023-01-29T11:54:19.641Z,42.58
2023-01-29T11:57:34.316Z,41.47
2023-01-29T12:00:41.844Z,41.60
2023-01-29T12:03:54.077Z,43.38
2023-01-29T12:06:58.644Z,42.05
2023-01-29T12:10:03.614Z,42.50
2023-01-29T12:13:10.936Z,42.65
2023-01-29T12:16:39.415Z,44.25
2023-01-29T12:20:03.861Z,41.05
2023-01-29T12:23:43.008Z,40.25
2023-01-29T12:26:54.407Z,39.00
2023-01-29T12:30:15.426Z,41.83
2023-01-29T12:33:25.536Z,39.63
2023-01-29T12:36:55.632Z,38.97
2023-01-29T12:40:01.710Z,38.72
2023-01-29T12:43:17.765Z,39.65
2023-01-29T12:46:30.233Z,40.28
2023-01-29T12:50:01.789Z,38.97
2023-01-29T12:53:31.796Z,38.80
2023-01-29T12:56:47.922Z,41.88
2023-01-29T13:00:27.637Z,39.35
2023-01-29T13:03:50.637Z,42.17
2023-01-29T13:07:04.921Z,41.08
2023-01-29T13:10:19.901Z,39.70
2023-01-29T13:13:39.393Z,42.78
2023-01-29T13:16:48.217Z,40.15
2023-01-29T13:20:01.168Z,39.22
2023-01-29T13:23:34.203Z,39.35
2023-01-29T13:26:50.365Z,37.38
2023-01-29T13:29:57.366Z,40.17
2023-01-29T13:33:11.129Z,39.00
2023-01-29T13:39:45.637Z,37.92
2023-01-29T13:43:00.206Z,41.03
2023-01-29T13:46:21.201Z,38.00
2023-01-29T13:49:48.006Z,38.33
2023-01-29T13:53:06.453Z,36.50
2023-01-29T13:56:37.874Z,39.10
2023-01-29T13:59:52.570Z,37.13
2023-01-29T14:03:23.747Z,36.47
2023-01-29T14:06:44.046Z,37.38
2023-01-29T14:09:49.659Z,38.70
2023-01-29T14:13:18.367Z,37.17
2023-01-29T14:16:22.973Z,36.53
2023-01-29T14:19:27.218Z,37.85
2023-01-29T14:22:34.730Z,37.38
2023-01-29T14:25:41.233Z,36.35
2023-01-29T14:29:14.509Z,38.20
2023-01-29T14:32:25.121Z,36.05
2023-01-29T14:35:34.829Z,34.53
2023-01-29T14:38:46.437Z,34.28
2023-01-29T14:41:52.725Z,35.42
2023-01-29T14:45:08.563Z,34.72
2023-01-29T14:48:42.340Z,33.60
2023-01-29T14:51:51.357Z,33.92
2023-01-29T14:55:06.061Z,34.28
2023-01-29T14:59:38.787Z,32.45
2023-01-29T15:03:41.634Z,31.20
2023-01-29T15:06:55.197Z,32.13
2023-01-29T15:10:57.168Z,32.15
2023-01-29T15:15:04.579Z,31.80
2023-01-29T15:19:04.931Z,31.98
2023-01-29T15:23:09.533Z,33.30
2023-01-29T15:30:45.182Z,29.95
2023-01-29T15:34:05.047Z,31.15
2023-01-29T15:38:14.903Z,31.75
2023-01-29T15:41:25.827Z,30.00
2023-01-29T15:44:48.220Z,30.50
2023-01-29T15:48:03.031Z,31.00
2023-01-29T15:51:11.952Z,29.38
2023-01-29T15:54:18.092Z,30.63
2023-01-29T15:57:30.962Z,31.48
2023-01-29T16:00:35.739Z,30.55
2023-01-29T16:03:40.297Z,31.48
2023-01-29T16:06:45.108Z,31.25
2023-01-29T16:09:52.693Z,31.95
2023-01-29T16:12:58.557Z,31.65
2023-01-29T16:16:19.153Z,33.22
2023-01-29T16:19:27.111Z,33.33
2023-01-29T16:22:37.333Z,32.83
2023-01-29T16:25:41.915Z,33.58
2023-01-29T16:28:47.520Z,35.90
2023-01-29T16:32:00.490Z,36.80
2023-01-29T16:35:06.070Z,36.20
2023-01-29T16:38:31.577Z,35.47
2023-01-29T16:41:38.536Z,38.42
2023-01-29T16:44:52.382Z,37.92
2023-01-29T16:48:27.874Z,37.28
2023-01-29T16:51:39.481Z,40.53
2023-01-29T16:54:43.997Z,37.83
2023-01-29T16:57:54.159Z,41.55
2023-01-29T17:01:11.442Z,42.97
2023-01-29T17:04:19.049Z,44.58
2023-01-29T17:07:23.809Z,49.55
2023-01-29T17:10:30.189Z,48.55
2023-01-29T17:13:44.332Z,48.13
2023-01-29T17:20:19.877Z,47.15
2023-01-29T17:23:24.341Z,49.03
2023-01-29T17:26:30.745Z,46.22
2023-01-29T17:29:37.848Z,45.47
2023-01-29T17:32:44.234Z,44.42
2023-01-29T17:35:50.629Z,42.35
2023-01-29T17:38:55.549Z,40.67
2023-01-29T17:42:01.367Z,40.28
2023-01-29T17:45:13.248Z,38.47
2023-01-29T17:48:27.115Z,35.80
2023-01-29T17:51:31.576Z,37.33
2023-01-29T17:54:36.178Z,37.97
2023-01-29T17:57:40.461Z,38.97
2023-01-29T18:00:45.637Z,39.08
2023-01-29T18:03:50.162Z,36.20
2023-01-29T18:07:00.016Z,37.80
2023-01-29T18:10:05.169Z,38.83
2023-01-29T18:13:09.742Z,39.85
2023-01-29T18:16:14.162Z,39.80
2023-01-29T18:19:27.613Z,40.08
2023-01-29T18:22:32.350Z,41.08
2023-01-29T18:25:36.581Z,42.20
2023-01-29T18:28:43.393Z,40.65
2023-01-29T18:31:49.559Z,43.08
2023-01-29T18:34:54.626Z,42.10
2023-01-29T18:37:59.177Z,41.60
2023-01-29T18:41:11.944Z,43.38
2023-01-29T18:44:16.345Z,44.63
2023-01-29T18:47:20.549Z,43.70
2023-01-29T18:50:26.382Z,43.00
2023-01-29T18:53:32.829Z,41.75
2023-01-29T18:57:13.117Z,43.78
2023-01-29T19:00:08.875Z,43.22
2023-01-29T19:03:13.698Z,43.50
2023-01-29T19:06:18.404Z,42.10
2023-01-29T19:09:25.366Z,41.03
2023-01-29T19:12:33.968Z,43.45
2023-01-29T19:15:47.538Z,43.63
2023-01-29T19:19:16.527Z,44.35
2023-01-29T19:22:28.411Z,44.83
2023-01-29T19:25:52.208Z,45.88
2023-01-29T19:29:16.325Z,47.33
2023-01-29T19:32:35.342Z,47.33
2023-01-29T19:35:43.818Z,50.58
2023-01-29T19:38:50.418Z,47.35
2023-01-29T19:41:54.968Z,49.83
2023-01-29T19:44:59.290Z,51.08
2023-01-29T19:48:03.687Z,50.45
2023-01-29T19:51:10.577Z,54.22
2023-01-29T19:54:22.002Z,56.13
2023-01-29T19:57:26.336Z,55.75
2023-01-29T20:00:31.331Z,55.83
2023-01-29T20:03:44.659Z,54.38
2023-01-29T20:06:52.687Z,56.17
2023-01-29T20:10:00.511Z,55.92
2023-01-29T20:13:06.074Z,57.55
2023-01-29T20:16:14.029Z,56.75
2023-01-29T20:19:22.155Z,53.72
2023-01-29T20:22:27.292Z,56.28
2023-01-29T20:25:31.923Z,58.00
2023-01-29T20:28:42.790Z,53.47
2023-01-29T20:31:47.704Z,56.28
2023-01-29T20:35:06.042Z,53.85
2023-01-29T20:38:10.793Z,54.95
2023-01-29T20:41:27.515Z,56.00
2023-01-29T20:44:32.379Z,54.17
2023-01-29T20:47:37.548Z,53.95
2023-01-29T20:50:43.102Z,51.92
2023-01-29T20:53:57.539Z,53.65
2023-01-29T20:57:02.136Z,51.38
2023-01-29T21:00:12.065Z,51.65
2023-01-29T21:03:16.896Z,53.13
2023-01-29T21:06:24.555Z,53.33
2023-01-29T21:09:29.150Z,50.50
2023-01-29T21:12:33.479Z,54.78
2023-01-29T21:15:38.646Z,53.65
2023-01-29T21:18:47.546Z,53.28
2023-01-29T21:21:51.902Z,49.50
2023-01-29T21:24:56.351Z,51.78
2023-01-29T21:28:01.163Z,47.05
2023-01-29T21:31:12.882Z,47.92
2023-01-29T21:34:17.307Z,48.78
2023-01-29T21:37:21.875Z,49.67
2023-01-29T21:40:26.160Z,49.50
2023-01-29T21:43:30.651Z,46.67
2023-01-29T21:46:35.160Z,47.95
2023-01-29T21:49:44.663Z,45.50
2023-01-29T21:52:49.291Z,44.78
2023-01-29T21:56:01.225Z,44.13
2023-01-29T21:59:11.511Z,44.58
2023-01-29T22:02:16.279Z,44.80
2023-01-29T22:05:20.618Z,40.53
2023-01-29T22:08:31.957Z,43.88
2023-01-29T22:11:39.962Z,44.15
2023-01-29T22:14:48.496Z,42.03
2023-01-29T22:17:55.197Z,42.75
2023-01-29T22:21:05.112Z,42.53
2023-01-29T22:24:09.762Z,42.83
2023-01-29T22:27:18.428Z,43.20
2023-01-29T22:30:23.412Z,42.38
2023-01-29T22:33:28.400Z,43.10
2023-01-29T22:36:32.994Z,43.03
2023-01-29T22:39:37.455Z,41.33
2023-01-29T22:42:41.696Z,38.35
2023-01-29T22:45:46.633Z,41.47
2023-01-29T22:48:54.643Z,40.00
2023-01-29T22:52:11.880Z,39.03
2023-01-29T22:55:37.426Z,37.45
2023-01-29T22:58:42.380Z,39.65
2023-01-29T23:01:49.567Z,39.10
2023-01-29T23:04:54.742Z,40.00
2023-01-29T23:08:10.221Z,40.65
2023-01-29T23:11:21.826Z,38.95
2023-01-29T23:14:32.511Z,39.83
2023-01-29T23:18:04.533Z,39.72
2023-01-29T23:21:49.728Z,37.58
2023-01-29T23:24:56.727Z,38.78
2023-01-29T23:28:12.211Z,39.20
2023-01-29T23:31:19.811Z,39.30
2023-01-29T23:34:38.775Z,40.15
2023-01-29T23:37:43.824Z,36.63
2023-01-29T23:41:14.117Z,39.45
2023-01-29T23:48:09.935Z,39.80
2023-01-29T23:51:39.643Z,40.20
2023-01-29T23:54:44.075Z,41.42
2023-01-29T23:57:52.816Z,38.30
